createdAt,value
2022-10-04T00:00:26.325Z,21.4
2022-10-04T00:01:28.014Z,21.4
2022-10-04T00:02:30.190Z,21.3
2022-10-04T00:03:32.279Z,21.3
2022-10-04T00:04:33.937Z,21.3
2022-10-04T00:05:35.476Z,21.3
2022-10-04T00:06:37.084Z,21.3
2022-10-04T00:07:39.121Z,21.3
2022-10-04T00:08:40.838Z,21.3
2022-10-04T00:09:42.453Z,21.3
2022-10-04T00:10:44.034Z,21.3
2022-10-04T00:11:48.335Z,21.3
2022-10-04T00:12:49.928Z,21.3
2022-10-04T00:13:51.570Z,21.3
2022-10-04T00:14:53.225Z,21.3
2022-10-04T00:15:55.020Z,21.3
2022-10-04T00:16:57.133Z,21.3
2022-10-04T00:17:58.780Z,21.3
2022-10-04T00:19:00.365Z,21.3
2022-10-04T00:20:01.916Z,21.3
2022-10-04T00:21:03.557Z,21.3
2022-10-04T00:22:05.341Z,21.3
2022-10-04T00:23:07.043Z,21.3
2022-10-04T00:24:08.750Z,21.3
2022-10-04T00:25:10.332Z,21.3
2022-10-04T00:26:11.961Z,21.3
2022-10-04T00:27:13.702Z,21.3
2022-10-04T00:28:15.377Z,21.3
2022-10-04T00:29:17.383Z,21.3
2022-10-04T00:30:18.943Z,21.3
2022-10-04T00:31:20.809Z,21.3
2022-10-04T00:32:22.973Z,21.3
2022-10-04T00:33:24.564Z,21.3
2022-10-04T00:34:30.026Z,21.3
2022-10-04T00:35:31.876Z,21.3
2022-10-04T00:36:33.497Z,21.3
2022-10-04T00:37:35.102Z,21.3
2022-10-04T00:38:36.618Z,21.3
2022-10-04T00:39:38.197Z,21.3
2022-10-04T00:40:39.887Z,21.3
2022-10-04T00:41:41.688Z,21.2
2022-10-04T00:42:44.614Z,21.3
2022-10-04T00:43:46.229Z,21.3
2022-10-04T00:44:47.996Z,21.2
2022-10-04T00:45:49.700Z,21.2
2022-10-04T00:46:51.893Z,21.3
2022-10-04T00:47:53.583Z,21.3
2022-10-04T00:48:55.112Z,21.3
2022-10-04T00:49:56.734Z,21.2
2022-10-04T00:50:58.339Z,21.2
2022-10-04T00:52:00.032Z,21.2
2022-10-04T00:53:01.729Z,21.2
2022-10-04T00:54:03.387Z,21.2
2022-10-04T00:55:04.909Z,21.2
2022-10-04T00:56:06.508Z,21.2
2022-10-04T00:57:08.107Z,21.2
2022-10-04T00:58:09.837Z,21.2
2022-10-04T00:59:11.458Z,21.2
2022-10-04T01:00:13.072Z,21.2
2022-10-04T01:01:14.861Z,21.2
2022-10-04T01:02:17.173Z,21.2
2022-10-04T01:03:19.231Z,21.2
2022-10-04T01:04:20.759Z,21.2
2022-10-04T01:05:22.386Z,21.2
2022-10-04T01:06:23.946Z,21.2
2022-10-04T01:07:25.482Z,21.2
2022-10-04T01:08:27.118Z,21.2
2022-10-04T01:09:28.720Z,21.2
2022-10-04T01:10:30.345Z,21.2
2022-10-04T01:11:31.965Z,21.2
2022-10-04T01:12:33.490Z,21.2
2022-10-04T01:13:35.303Z,21.2
2022-10-04T01:14:36.913Z,21.1
2022-10-04T01:15:38.605Z,21.2
2022-10-04T01:16:40.743Z,21.2
2022-10-04T01:17:42.414Z,21.2
2022-10-04T01:18:44.184Z,21.2
2022-10-04T01:19:45.791Z,21.2
2022-10-04T01:20:47.374Z,21.2
2022-10-04T01:21:48.927Z,21.1
2022-10-04T01:22:50.527Z,21.1
2022-10-04T01:23:52.095Z,21.1
2022-10-04T01:24:53.652Z,21.1
2022-10-04T01:25:55.200Z,21.1
2022-10-04T01:26:56.810Z,21.1
2022-10-04T01:27:58.410Z,21.1
2022-10-04T01:29:00.327Z,21.1
2022-10-04T01:30:01.862Z,21.1
2022-10-04T01:31:03.589Z,21.1
2022-10-04T01:32:05.807Z,21.1
2022-10-04T01:33:07.600Z,21.1
2022-10-04T01:34:09.408Z,21.1
2022-10-04T01:35:11.026Z,21.1
2022-10-04T01:36:12.595Z,21.1
2022-10-04T01:37:14.289Z,21.1
2022-10-04T01:38:15.820Z,21.1
2022-10-04T01:39:17.362Z,21.1
2022-10-04T01:40:19.296Z,21.1
2022-10-04T01:41:20.880Z,21.1
2022-10-04T01:42:22.505Z,21.1
2022-10-04T01:43:24.149Z,21.1
2022-10-04T01:44:25.736Z,21.1
2022-10-04T01:45:27.342Z,21.1
2022-10-04T01:46:29.095Z,21.1
2022-10-04T01:47:31.118Z,21.1
2022-10-04T01:48:33.015Z,21.1
2022-10-04T01:49:34.721Z,21.1
2022-10-04T01:50:36.272Z,21.1
2022-10-04T01:51:38.009Z,21.1
2022-10-04T01:52:39.610Z,21.1
2022-10-04T01:53:41.257Z,21.1
2022-10-04T01:54:42.903Z,21.1
2022-10-04T01:55:44.634Z,21.1
2022-10-04T01:56:46.348Z,21.1
2022-10-04T01:57:47.889Z,21.1
2022-10-04T01:58:49.478Z,21.1
2022-10-04T01:59:51.393Z,21.1
2022-10-04T02:00:53.101Z,21.1
2022-10-04T02:01:57.743Z,21.1
2022-10-04T02:02:59.280Z,21.1
2022-10-04T02:04:00.990Z,21
2022-10-04T02:05:02.725Z,21
2022-10-04T02:06:04.730Z,21
2022-10-04T02:07:06.289Z,21.1
2022-10-04T02:08:07.877Z,21
2022-10-04T02:09:09.498Z,21
2022-10-04T02:10:11.066Z,21
2022-10-04T02:11:12.611Z,21
2022-10-04T02:12:14.238Z,21.1
2022-10-04T02:13:15.796Z,21.1
2022-10-04T02:14:17.359Z,21.1
2022-10-04T02:15:19.067Z,21
2022-10-04T02:16:20.758Z,21
2022-10-04T02:17:22.928Z,21.1
2022-10-04T02:18:24.508Z,21
2022-10-04T02:19:26.448Z,21
2022-10-04T02:20:28.190Z,21
2022-10-04T02:21:29.837Z,21
2022-10-04T02:22:31.382Z,21
2022-10-04T02:23:32.932Z,21
2022-10-04T02:24:34.526Z,21
2022-10-04T02:25:36.192Z,21
2022-10-04T02:26:37.762Z,21
2022-10-04T02:27:39.688Z,21
2022-10-04T02:28:41.230Z,21
2022-10-04T02:29:42.851Z,21
2022-10-04T02:30:44.626Z,21
2022-10-04T02:31:46.397Z,21
2022-10-04T02:32:48.531Z,21
2022-10-04T02:33:50.177Z,21
2022-10-04T02:34:52.091Z,21
2022-10-04T02:35:53.863Z,21
2022-10-04T02:36:55.538Z,21
2022-10-04T02:37:57.125Z,21
2022-10-04T02:38:58.657Z,21
2022-10-04T02:40:00.483Z,21
2022-10-04T02:41:02.207Z,21
2022-10-04T02:42:03.826Z,21
2022-10-04T02:43:05.492Z,21
2022-10-04T02:44:07.038Z,21
2022-10-04T02:45:08.592Z,21
2022-10-04T02:46:10.357Z,21
2022-10-04T02:47:12.487Z,21
2022-10-04T02:48:14.081Z,20.9
2022-10-04T02:49:15.727Z,20.9
2022-10-04T02:50:17.552Z,20.9
2022-10-04T02:51:19.291Z,20.9
2022-10-04T02:52:20.901Z,20.9
2022-10-04T02:53:22.540Z,20.9
2022-10-04T02:54:24.245Z,21
2022-10-04T02:55:25.899Z,21
2022-10-04T02:56:27.561Z,21
2022-10-04T02:57:29.144Z,21
2022-10-04T02:58:30.778Z,20.9
2022-10-04T02:59:35.336Z,20.9
2022-10-04T03:00:37.329Z,20.9
2022-10-04T03:01:39.387Z,21
2022-10-04T03:02:42.051Z,20.9
2022-10-04T03:03:43.925Z,20.9
2022-10-04T03:04:45.463Z,21
2022-10-04T03:05:47.137Z,20.9
2022-10-04T03:06:48.777Z,20.9
2022-10-04T03:07:50.521Z,20.9
2022-10-04T03:08:52.106Z,20.9
2022-10-04T03:09:53.694Z,20.9
2022-10-04T03:10:55.339Z,20.9
2022-10-04T03:11:56.922Z,20.9
2022-10-04T03:12:58.672Z,20.9
2022-10-04T03:14:00.273Z,20.9
2022-10-04T03:15:01.946Z,20.9
2022-10-04T03:16:03.578Z,20.9
2022-10-04T03:17:05.728Z,20.9
2022-10-04T03:18:07.271Z,20.9
2022-10-04T03:19:08.907Z,20.9
2022-10-04T03:20:10.598Z,20.9
2022-10-04T03:21:12.525Z,20.9
2022-10-04T03:22:14.226Z,20.9
2022-10-04T03:23:18.877Z,20.9
2022-10-04T03:24:20.379Z,20.9
2022-10-04T03:25:22.053Z,20.9
2022-10-04T03:26:23.807Z,20.9
2022-10-04T03:27:25.532Z,20.9
2022-10-04T03:28:27.197Z,20.9
2022-10-04T03:29:29.458Z,20.9
2022-10-04T03:30:31.039Z,20.9
2022-10-04T03:31:32.700Z,20.8
2022-10-04T03:32:34.703Z,20.8
2022-10-04T03:33:36.251Z,20.8
2022-10-04T03:34:37.995Z,20.8
2022-10-04T03:35:39.528Z,20.7
2022-10-04T03:36:41.262Z,20.7
2022-10-04T03:37:43.034Z,20.7
2022-10-04T03:38:44.542Z,20.7
2022-10-04T03:39:46.125Z,20.7
2022-10-04T03:40:47.705Z,20.7
2022-10-04T03:41:49.273Z,20.7
2022-10-04T03:42:50.814Z,20.7
2022-10-04T03:43:52.361Z,20.7
2022-10-04T03:44:53.911Z,20.6
2022-10-04T03:45:55.666Z,20.6
2022-10-04T03:46:58.239Z,20.6
2022-10-04T03:48:00.040Z,20.6
2022-10-04T03:49:01.598Z,20.6
2022-10-04T03:50:03.140Z,20.6
2022-10-04T03:51:04.788Z,20.7
2022-10-04T03:52:06.909Z,20.7
2022-10-04T03:53:08.737Z,20.7
2022-10-04T03:54:10.321Z,20.7
2022-10-04T03:55:11.945Z,20.7
2022-10-04T03:56:13.536Z,20.7
2022-10-04T03:57:15.209Z,20.7
2022-10-04T03:58:16.769Z,20.7
2022-10-04T03:59:18.430Z,20.7
2022-10-04T04:00:20.035Z,20.7
2022-10-04T04:01:24.341Z,20.7
2022-10-04T04:02:26.337Z,20.7
2022-10-04T04:03:28.562Z,20.7
2022-10-04T04:04:30.144Z,20.7
2022-10-04T04:05:31.729Z,20.8
2022-10-04T04:06:33.395Z,20.8
2022-10-04T04:07:35.165Z,20.7
2022-10-04T04:08:36.871Z,20.8
2022-10-04T04:09:38.536Z,20.8
2022-10-04T04:10:40.084Z,20.8
2022-10-04T04:11:41.934Z,20.8
2022-10-04T04:12:45.169Z,20.8
2022-10-04T04:13:46.858Z,20.8
2022-10-04T04:14:48.499Z,20.8
2022-10-04T04:15:50.177Z,20.9
2022-10-04T04:16:52.186Z,21
2022-10-04T04:17:53.934Z,21
2022-10-04T04:18:55.649Z,21
2022-10-04T04:19:57.362Z,21.1
2022-10-04T04:20:58.906Z,21.1
2022-10-04T04:22:00.736Z,21.1
2022-10-04T04:23:02.414Z,21.1
2022-10-04T04:24:04.272Z,21.2
2022-10-04T04:25:05.915Z,21.3
2022-10-04T04:26:07.437Z,21.3
2022-10-04T04:27:08.985Z,21.4
2022-10-04T04:28:10.684Z,21.4
2022-10-04T04:29:12.672Z,21.4
2022-10-04T04:30:14.381Z,21.4
2022-10-04T04:31:16.189Z,21.5
2022-10-04T04:32:18.309Z,21.6
2022-10-04T04:33:21.074Z,21.6
2022-10-04T04:34:22.836Z,21.6
2022-10-04T04:35:24.398Z,21.7
2022-10-04T04:36:26.035Z,21.7
2022-10-04T04:37:27.665Z,21.7
2022-10-04T04:38:29.620Z,21.7
2022-10-04T04:39:31.368Z,21.8
2022-10-04T04:40:32.982Z,21.8
2022-10-04T04:41:34.608Z,21.9
2022-10-04T04:42:36.215Z,21.9
2022-10-04T04:43:37.845Z,21.9
2022-10-04T04:44:39.473Z,21.9
2022-10-04T04:45:41.049Z,22
2022-10-04T04:46:43.242Z,22
2022-10-04T04:47:45.446Z,22
2022-10-04T04:48:46.990Z,22.1
2022-10-04T04:49:48.576Z,22.1
2022-10-04T04:50:50.123Z,22.1
2022-10-04T04:51:51.858Z,22.1
2022-10-04T04:52:53.417Z,22.2
2022-10-04T04:53:55.136Z,22.2
2022-10-04T04:54:56.915Z,22.3
2022-10-04T04:56:05.656Z,22.3
2022-10-04T04:57:19.274Z,22.3
2022-10-04T04:58:20.919Z,22.4
2022-10-04T04:59:23.139Z,22.4
2022-10-04T05:00:27.898Z,22.5
2022-10-04T05:01:29.601Z,22.5
2022-10-04T05:02:31.578Z,22.5
2022-10-04T05:03:33.777Z,22.5
2022-10-04T05:04:35.592Z,22.6
2022-10-04T05:05:40.064Z,22.6
2022-10-04T05:06:41.626Z,22.6
2022-10-04T05:07:43.238Z,22.6
2022-10-04T05:08:44.938Z,22.6
2022-10-04T05:09:46.783Z,22.7
2022-10-04T05:10:48.527Z,22.7
2022-10-04T05:11:50.086Z,22.7
2022-10-04T05:12:51.631Z,22.8
2022-10-04T05:13:53.215Z,22.8
2022-10-04T05:14:54.792Z,22.8
2022-10-04T05:15:56.523Z,22.8
2022-10-04T05:16:58.119Z,22.8
2022-10-04T05:18:00.266Z,22.9
2022-10-04T05:19:01.844Z,22.9
2022-10-04T05:20:03.659Z,23
2022-10-04T05:21:05.931Z,23.1
2022-10-04T05:22:07.581Z,23.1
2022-10-04T05:23:09.265Z,23.2
2022-10-04T05:24:11.101Z,23.2
2022-10-04T05:25:13.386Z,23.3
2022-10-04T05:26:15.109Z,23.3
2022-10-04T05:27:16.720Z,23.5
2022-10-04T05:28:18.427Z,23.5
2022-10-04T05:29:20.649Z,23.6
2022-10-04T05:30:22.269Z,23.7
2022-10-04T05:31:24.014Z,23.8
2022-10-04T05:32:25.960Z,23.8
2022-10-04T05:33:30.681Z,23.8
2022-10-04T05:34:35.559Z,23.9
2022-10-04T05:35:37.127Z,24
2022-10-04T05:36:38.748Z,24.1
2022-10-04T05:37:40.285Z,24.1
2022-10-04T05:38:41.817Z,24.1
2022-10-04T05:39:43.426Z,24.2
2022-10-04T05:40:45.218Z,24.3
2022-10-04T05:41:47.234Z,24.3
2022-10-04T05:42:49.343Z,24.4
2022-10-04T05:43:50.881Z,24.5
2022-10-04T05:44:52.413Z,24.5
2022-10-04T05:45:54.126Z,24.6
2022-10-04T05:46:56.300Z,24.5
2022-10-04T05:48:00.535Z,24.6
2022-10-04T05:49:02.170Z,24.6
2022-10-04T05:50:03.808Z,24.6
2022-10-04T05:51:05.336Z,24.6
2022-10-04T05:52:06.954Z,24.6
2022-10-04T05:53:08.635Z,24.6
2022-10-04T05:54:10.215Z,24.7
2022-10-04T05:55:11.910Z,24.8
2022-10-04T05:56:13.684Z,24.8
2022-10-04T05:57:15.318Z,24.8
2022-10-04T05:58:16.862Z,24.9
2022-10-04T05:59:18.588Z,24.8
2022-10-04T06:00:20.234Z,24.8
2022-10-04T06:01:21.911Z,24.9
2022-10-04T06:02:24.164Z,24.9
2022-10-04T06:03:26.195Z,25
2022-10-04T06:04:27.745Z,25
2022-10-04T06:05:29.516Z,25.1
2022-10-04T06:06:31.060Z,25.1
2022-10-04T06:07:32.660Z,25.1
2022-10-04T06:08:34.266Z,25.1
2022-10-04T06:09:36.003Z,25.1
2022-10-04T06:10:37.564Z,25.1
2022-10-04T06:11:39.384Z,25.1
2022-10-04T06:12:44.337Z,25.1
2022-10-04T06:13:46.263Z,25.1
2022-10-04T06:14:47.924Z,25
2022-10-04T06:15:49.484Z,25
2022-10-04T06:16:51.098Z,25
2022-10-04T06:17:53.145Z,24.9
2022-10-04T06:18:54.777Z,24.9
2022-10-04T06:19:56.352Z,24.9
2022-10-04T06:20:57.894Z,24.9
2022-10-04T06:21:59.538Z,24.8
2022-10-04T06:23:01.118Z,24.8
2022-10-04T06:24:02.768Z,24.8
2022-10-04T06:25:04.526Z,24.7
2022-10-04T06:26:06.103Z,24.7
2022-10-04T06:27:07.855Z,24.7
2022-10-04T06:28:09.540Z,24.7
2022-10-04T06:29:11.627Z,24.6
2022-10-04T06:30:13.197Z,24.6
2022-10-04T06:31:14.815Z,24.6
2022-10-04T06:32:16.868Z,24.6
2022-10-04T06:33:18.456Z,24.6
2022-10-04T06:34:20.239Z,24.6
2022-10-04T06:35:21.950Z,24.6
2022-10-04T06:36:23.591Z,24.6
2022-10-04T06:37:25.237Z,24.6
2022-10-04T06:38:26.772Z,24.5
2022-10-04T06:39:28.300Z,24.5
2022-10-04T06:40:29.942Z,24.4
2022-10-04T06:41:31.558Z,24.4
2022-10-04T06:42:33.347Z,24.4
2022-10-04T06:43:34.992Z,24.4
2022-10-04T06:44:36.719Z,24.4
2022-10-04T06:45:38.489Z,24.4
2022-10-04T06:46:40.331Z,24.4
2022-10-04T06:47:41.966Z,24.4
2022-10-04T06:48:43.676Z,24.4
2022-10-04T06:49:45.296Z,24.3
2022-10-04T06:50:46.843Z,24.3
2022-10-04T06:51:48.453Z,24.3
2022-10-04T06:52:50.163Z,24.3
2022-10-04T06:53:51.979Z,24.2
2022-10-04T06:54:53.522Z,24.2
2022-10-04T06:55:55.259Z,24.2
2022-10-04T06:56:56.881Z,24.2
2022-10-04T06:57:58.956Z,24.2
2022-10-04T06:59:00.715Z,24.2
2022-10-04T07:00:02.369Z,24.2
2022-10-04T07:01:04.075Z,24.2
2022-10-04T07:02:06.199Z,24.2
2022-10-04T07:03:08.173Z,24.2
2022-10-04T07:04:09.772Z,24.2
2022-10-04T07:05:11.441Z,24.2
2022-10-04T07:06:13.474Z,24.2
2022-10-04T07:07:15.183Z,24.2
2022-10-04T07:08:16.754Z,24.3
2022-10-04T07:09:18.428Z,24.2
2022-10-04T07:10:20.245Z,24.2
2022-10-04T07:11:22.003Z,24.2
2022-10-04T07:12:23.775Z,24.2
2022-10-04T07:13:25.679Z,24.2
2022-10-04T07:14:27.523Z,24.2
2022-10-04T07:15:29.158Z,24.1
2022-10-04T07:16:31.074Z,24.1
2022-10-04T07:17:32.691Z,24.1
2022-10-04T07:18:34.353Z,24.1
2022-10-04T07:19:36.471Z,24.1
2022-10-04T07:20:38.076Z,24.1
2022-10-04T07:21:39.746Z,24.1
2022-10-04T07:22:43.128Z,24.1
2022-10-04T07:23:44.777Z,24.1
2022-10-04T07:24:46.457Z,24.1
2022-10-04T07:25:48.281Z,24.1
2022-10-04T07:26:49.963Z,24.1
2022-10-04T07:27:51.832Z,24
2022-10-04T07:28:53.932Z,24
2022-10-04T07:29:55.623Z,24
2022-10-04T07:30:57.314Z,24
2022-10-04T07:31:59.686Z,23.9
2022-10-04T07:33:01.354Z,24
2022-10-04T07:34:02.920Z,24
2022-10-04T07:35:04.648Z,24
2022-10-04T07:36:06.216Z,24
2022-10-04T07:37:07.812Z,24
2022-10-04T07:38:09.647Z,24
2022-10-04T07:39:11.320Z,24
2022-10-04T07:40:12.947Z,24
2022-10-04T07:41:14.655Z,24
2022-10-04T07:42:16.283Z,24
2022-10-04T07:43:18.071Z,24
2022-10-04T07:44:19.859Z,24
2022-10-04T07:45:21.668Z,24
2022-10-04T07:46:23.334Z,24
2022-10-04T07:47:25.589Z,24
2022-10-04T07:48:27.294Z,24
2022-10-04T07:49:28.803Z,23.9
2022-10-04T07:50:30.465Z,23.9
2022-10-04T07:51:32.102Z,23.9
2022-10-04T07:52:33.632Z,24
2022-10-04T07:53:35.332Z,24
2022-10-04T07:54:36.935Z,24
2022-10-04T07:55:41.465Z,24
2022-10-04T07:56:43.163Z,24
2022-10-04T07:57:44.732Z,24
2022-10-04T07:58:46.382Z,24
2022-10-04T07:59:48.242Z,23.9
2022-10-04T08:00:50.101Z,23.9
2022-10-04T08:01:51.938Z,24
2022-10-04T08:02:53.959Z,24.1
2022-10-04T08:03:56.203Z,24
2022-10-04T08:04:57.862Z,23.9
2022-10-04T08:05:59.414Z,23.9
2022-10-04T08:07:00.984Z,23.9
2022-10-04T08:08:02.531Z,23.9
2022-10-04T08:09:04.197Z,23.9
2022-10-04T08:10:05.869Z,23.9
2022-10-04T08:11:10.219Z,23.9
2022-10-04T08:12:11.851Z,24
2022-10-04T08:13:13.460Z,23.9
2022-10-04T08:14:15.002Z,23.9
2022-10-04T08:15:16.704Z,23.9
2022-10-04T08:16:18.499Z,24
2022-10-04T08:17:20.454Z,23.9
2022-10-04T08:18:22.024Z,23.9
2022-10-04T08:19:23.635Z,23.9
2022-10-04T08:20:25.315Z,23.9
2022-10-04T08:21:26.909Z,23.9
2022-10-04T08:22:28.594Z,23.9
2022-10-04T08:23:30.170Z,23.9
2022-10-04T08:24:31.721Z,23.9
2022-10-04T08:25:33.411Z,23.9
2022-10-04T08:26:35.240Z,23.9
2022-10-04T08:27:36.947Z,23.9
2022-10-04T08:28:38.511Z,23.8
2022-10-04T08:29:40.252Z,23.8
2022-10-04T08:30:42.063Z,23.8
2022-10-04T08:31:44.110Z,23.8
2022-10-04T08:32:45.646Z,23.8
2022-10-04T08:33:47.285Z,23.8
2022-10-04T08:34:48.829Z,23.8
2022-10-04T08:35:50.442Z,23.8
2022-10-04T08:36:52.080Z,23.8
2022-10-04T08:37:53.729Z,23.9
2022-10-04T08:38:55.408Z,23.8
2022-10-04T08:39:57.173Z,23.8
2022-10-04T08:40:59.099Z,23.8
2022-10-04T08:42:01.063Z,23.8
2022-10-04T08:43:02.631Z,23.8
2022-10-04T08:44:04.321Z,23.9
2022-10-04T08:45:05.996Z,23.9
2022-10-04T08:46:07.957Z,23.9
2022-10-04T08:47:10.007Z,23.9
2022-10-04T08:48:11.761Z,23.9
2022-10-04T08:49:13.500Z,23.9
2022-10-04T08:50:15.040Z,23.9
2022-10-04T08:51:16.780Z,23.9
2022-10-04T08:52:18.661Z,23.9
2022-10-04T08:53:20.217Z,23.9
2022-10-04T08:54:21.753Z,23.9
2022-10-04T08:55:23.327Z,23.9
2022-10-04T08:56:25.071Z,23.9
2022-10-04T08:57:26.869Z,23.9
2022-10-04T08:58:28.411Z,23.9
2022-10-04T08:59:29.953Z,23.9
2022-10-04T09:00:31.527Z,23.9
2022-10-04T09:01:33.496Z,23.9
2022-10-04T09:02:35.570Z,23.9
2022-10-04T09:03:37.799Z,23.9
2022-10-04T09:04:39.370Z,23.9
2022-10-04T09:05:40.900Z,23.9
2022-10-04T09:06:42.729Z,23.9
2022-10-04T09:07:45.630Z,23.9
2022-10-04T09:08:47.364Z,23.9
2022-10-04T09:09:48.967Z,23.9
2022-10-04T09:10:50.556Z,23.9
2022-10-04T09:11:52.103Z,23.9
2022-10-04T09:12:53.680Z,24
2022-10-04T09:13:55.406Z,24
2022-10-04T09:14:57.165Z,24
2022-10-04T09:15:58.856Z,24
2022-10-04T09:17:00.998Z,24
2022-10-04T09:18:02.793Z,24
2022-10-04T09:19:04.596Z,24
2022-10-04T09:20:26.562Z,24
2022-10-04T09:21:41.507Z,24
2022-10-04T09:22:43.152Z,24.1
2022-10-04T09:23:44.739Z,24.1
2022-10-04T09:24:46.546Z,24.1
2022-10-04T09:25:48.302Z,24.1
2022-10-04T09:26:49.919Z,24
2022-10-04T09:27:55.466Z,24
2022-10-04T09:29:01.187Z,24
2022-10-04T09:30:06.986Z,24
2022-10-04T09:31:08.724Z,24
2022-10-04T09:32:11.282Z,23.9
2022-10-04T09:33:13.847Z,23.9
2022-10-04T09:34:15.527Z,23.9
2022-10-04T09:35:17.224Z,23.9
2022-10-04T09:36:18.966Z,23.9
2022-10-04T09:37:20.627Z,23.9
2022-10-04T09:38:22.282Z,23.9
2022-10-04T09:39:30.264Z,23.9
2022-10-04T09:40:33.016Z,23.9
2022-10-04T09:41:34.597Z,23.9
2022-10-04T09:42:36.264Z,23.9
2022-10-04T09:43:37.882Z,23.9
2022-10-04T09:44:39.566Z,23.9
2022-10-04T09:45:41.287Z,23.9
2022-10-04T09:46:43.166Z,23.9
2022-10-04T09:47:47.467Z,23.9
2022-10-04T09:48:49.164Z,23.9
2022-10-04T09:49:50.700Z,23.9
2022-10-04T09:50:52.409Z,23.9
2022-10-04T09:51:54.052Z,23.9
2022-10-04T09:52:55.595Z,23.8
2022-10-04T09:53:57.237Z,23.8
2022-10-04T09:54:58.946Z,23.8
2022-10-04T09:56:00.519Z,23.8
2022-10-04T09:57:02.224Z,23.8
2022-10-04T09:58:03.778Z,23.8
2022-10-04T09:59:05.323Z,23.8
2022-10-04T10:00:06.960Z,23.8
2022-10-04T10:01:08.663Z,23.8
2022-10-04T10:02:10.437Z,23.8
2022-10-04T10:03:15.698Z,23.9
2022-10-04T10:04:18.115Z,23.9
2022-10-04T10:05:19.787Z,23.8
2022-10-04T10:06:21.358Z,23.8
2022-10-04T10:07:23.030Z,23.8
2022-10-04T10:08:28.073Z,23.8
2022-10-04T10:09:30.064Z,23.8
2022-10-04T10:10:31.626Z,23.8
2022-10-04T10:11:33.311Z,23.7
2022-10-04T10:12:34.942Z,23.8
2022-10-04T10:13:36.499Z,23.7
2022-10-04T10:14:38.167Z,23.7
2022-10-04T10:15:39.739Z,23.7
2022-10-04T10:16:42.006Z,23.6
2022-10-04T10:17:44.854Z,23.7
2022-10-04T10:18:46.722Z,23.7
2022-10-04T10:19:48.444Z,23.7
2022-10-04T10:20:49.995Z,23.8
2022-10-04T10:21:51.545Z,23.8
2022-10-04T10:22:53.127Z,23.8
2022-10-04T10:23:54.682Z,23.7
2022-10-04T10:24:58.488Z,23.7
2022-10-04T10:26:00.224Z,23.7
2022-10-04T10:27:01.788Z,23.8
2022-10-04T10:28:03.581Z,23.8
2022-10-04T10:29:05.475Z,23.8
2022-10-04T10:30:07.102Z,23.9
2022-10-04T10:31:08.883Z,23.9
2022-10-04T10:32:11.021Z,23.9
2022-10-04T10:33:12.808Z,23.9
2022-10-04T10:34:14.607Z,23.9
2022-10-04T10:35:16.376Z,23.9
2022-10-04T10:36:18.170Z,24
2022-10-04T10:37:19.749Z,24
2022-10-04T10:38:21.328Z,24.1
2022-10-04T10:39:22.913Z,24.1
2022-10-04T10:40:24.536Z,24.1
2022-10-04T10:41:26.181Z,24.1
2022-10-04T10:42:27.842Z,24.1
2022-10-04T10:43:29.474Z,24.1
2022-10-04T10:44:31.070Z,24
2022-10-04T10:45:32.723Z,24
2022-10-04T10:46:34.374Z,23.9
2022-10-04T10:47:36.516Z,24
2022-10-04T10:48:38.121Z,24
2022-10-04T10:49:42.806Z,24
2022-10-04T10:50:44.413Z,24
2022-10-04T10:51:46.025Z,24
2022-10-04T10:52:47.761Z,24
2022-10-04T10:53:49.377Z,24
2022-10-04T10:54:51.006Z,24
2022-10-04T10:55:52.549Z,24
2022-10-04T10:56:54.156Z,24
2022-10-04T10:57:55.882Z,24
2022-10-04T10:58:57.534Z,24
2022-10-04T10:59:59.080Z,24
2022-10-04T11:01:00.746Z,24
2022-10-04T11:02:02.486Z,24
2022-10-04T11:03:12.968Z,23.9
2022-10-04T11:04:26.808Z,24
2022-10-04T11:05:28.681Z,24
2022-10-04T11:06:30.581Z,24
2022-10-04T11:07:32.168Z,24
2022-10-04T11:08:33.747Z,24
2022-10-04T11:09:35.333Z,24
2022-10-04T11:10:36.835Z,24
2022-10-04T11:11:38.619Z,24
2022-10-04T11:12:40.299Z,24
2022-10-04T11:13:41.841Z,24
2022-10-04T11:14:43.469Z,24
2022-10-04T11:15:45.224Z,24
2022-10-04T11:16:47.495Z,24
2022-10-04T11:17:50.037Z,24
2022-10-04T11:18:51.621Z,24
2022-10-04T11:19:53.493Z,24
2022-10-04T11:20:55.228Z,24
2022-10-04T11:21:57.070Z,24
2022-10-04T11:22:58.744Z,24
2022-10-04T11:24:00.357Z,24
2022-10-04T11:25:01.961Z,24
2022-10-04T11:26:03.707Z,24
2022-10-04T11:27:05.373Z,24
2022-10-04T11:28:07.166Z,24
2022-10-04T11:29:09.260Z,24
2022-10-04T11:30:10.846Z,24
2022-10-04T11:31:12.510Z,24
2022-10-04T11:32:14.665Z,24.1
2022-10-04T11:33:16.429Z,24.1
2022-10-04T11:34:18.093Z,24.1
2022-10-04T11:35:19.658Z,24.1
2022-10-04T11:36:21.420Z,24.1
2022-10-04T11:37:22.981Z,24.1
2022-10-04T11:38:24.656Z,24.1
2022-10-04T11:39:26.430Z,24.1
2022-10-04T11:40:27.995Z,24.1
2022-10-04T11:41:29.719Z,24.1
2022-10-04T11:42:31.395Z,24.1
2022-10-04T11:43:32.943Z,24.1
2022-10-04T11:44:34.661Z,24.1
2022-10-04T11:45:36.275Z,24.1
2022-10-04T11:46:37.840Z,24.1
2022-10-04T11:47:39.830Z,24.1
2022-10-04T11:48:41.616Z,24.1
2022-10-04T11:49:43.246Z,24.1
2022-10-04T11:50:44.899Z,24.1
2022-10-04T11:51:46.670Z,24.1
2022-10-04T11:52:48.325Z,24.1
2022-10-04T11:53:49.874Z,24.1
2022-10-04T11:54:51.413Z,24.1
2022-10-04T11:55:52.992Z,24.1
2022-10-04T11:56:54.542Z,24.1
2022-10-04T11:57:56.229Z,24.1
2022-10-04T11:58:57.857Z,24.1
2022-10-04T11:59:59.500Z,24.1
2022-10-04T12:01:01.267Z,24
2022-10-04T12:02:02.904Z,24
2022-10-04T12:03:04.705Z,24
2022-10-04T12:04:09.637Z,24
2022-10-04T12:05:12.001Z,24
2022-10-04T12:06:13.707Z,23.9
2022-10-04T12:07:15.630Z,23.9
2022-10-04T12:08:17.494Z,23.8
2022-10-04T12:09:19.066Z,23.8
2022-10-04T12:10:20.653Z,23.8
2022-10-04T12:11:22.394Z,23.8
2022-10-04T12:12:24.029Z,23.8
2022-10-04T12:13:28.765Z,23.8
2022-10-04T12:14:30.366Z,23.8
2022-10-04T12:15:32.154Z,23.8
2022-10-04T12:16:34.039Z,23.8
2022-10-04T12:17:36.118Z,23.8
2022-10-04T12:18:37.672Z,23.9
2022-10-04T12:19:39.333Z,23.9
2022-10-04T12:20:40.964Z,23.9
2022-10-04T12:21:42.482Z,23.8
2022-10-04T12:22:44.253Z,23.8
2022-10-04T12:23:45.888Z,23.8
2022-10-04T12:24:47.520Z,23.7
2022-10-04T12:25:49.215Z,23.8
2022-10-04T12:26:50.878Z,23.8
2022-10-04T12:27:52.794Z,23.8
2022-10-04T12:28:54.643Z,23.8
2022-10-04T12:29:56.214Z,23.8
2022-10-04T12:30:57.779Z,23.8
2022-10-04T12:31:59.452Z,23.8
2022-10-04T12:33:01.501Z,23.8
2022-10-04T12:34:03.171Z,23.8
2022-10-04T12:35:05.483Z,23.7
2022-10-04T12:36:07.221Z,23.7
2022-10-04T12:37:08.861Z,23.7
2022-10-04T12:38:10.627Z,23.7
2022-10-04T12:39:12.440Z,23.7
2022-10-04T12:40:14.157Z,23.7
2022-10-04T12:41:18.736Z,23.7
2022-10-04T12:42:20.421Z,23.7
2022-10-04T12:43:22.897Z,23.8
2022-10-04T12:44:26.072Z,23.8
2022-10-04T12:45:27.652Z,23.7
2022-10-04T12:46:29.552Z,23.7
2022-10-04T12:47:31.153Z,23.7
2022-10-04T12:48:33.035Z,23.7
2022-10-04T12:49:34.623Z,23.7
2022-10-04T12:50:36.231Z,23.8
2022-10-04T12:51:37.896Z,23.8
2022-10-04T12:52:39.530Z,23.8
2022-10-04T12:53:41.333Z,23.8
2022-10-04T12:54:43.091Z,23.8
2022-10-04T12:55:44.713Z,23.8
2022-10-04T12:56:46.812Z,23.8
2022-10-04T12:57:50.248Z,23.8
2022-10-04T12:58:51.812Z,23.8
2022-10-04T12:59:53.498Z,23.8
2022-10-04T13:00:57.753Z,23.9
2022-10-04T13:02:04.109Z,23.9
2022-10-04T13:03:06.206Z,23.9
2022-10-04T13:04:07.739Z,23.9
2022-10-04T13:05:09.401Z,23.9
2022-10-04T13:06:11.248Z,23.8
2022-10-04T13:07:12.982Z,23.8
2022-10-04T13:08:14.580Z,23.9
2022-10-04T13:09:16.307Z,23.8
2022-10-04T13:10:25.938Z,23.9
2022-10-04T13:11:28.342Z,23.9
2022-10-04T13:12:29.992Z,23.9
2022-10-04T13:13:31.605Z,23.9
2022-10-04T13:14:33.218Z,23.9
2022-10-04T13:17:24.356Z,23.8
2022-10-04T13:18:38.056Z,23.9
2022-10-04T13:19:40.354Z,23.9
2022-10-04T13:20:42.139Z,23.9
2022-10-04T13:21:44.323Z,23.9
2022-10-04T13:23:02.803Z,23.9
2022-10-04T13:24:04.458Z,23.9
2022-10-04T13:25:06.248Z,23.9
2022-10-04T13:26:08.009Z,23.9
2022-10-04T13:27:09.548Z,23.9
2022-10-04T13:28:11.281Z,23.9
2022-10-04T13:29:13.347Z,23.9
2022-10-04T13:30:15.062Z,23.9
2022-10-04T13:31:16.800Z,23.9
2022-10-04T13:32:18.790Z,23.9
2022-10-04T13:33:20.329Z,23.8
2022-10-04T13:34:21.977Z,23.8
2022-10-04T13:35:23.633Z,23.8
2022-10-04T13:36:25.412Z,23.8
2022-10-04T13:37:26.980Z,23.8
2022-10-04T13:38:28.655Z,23.8
2022-10-04T13:39:30.213Z,23.8
2022-10-04T13:40:32.166Z,23.8
2022-10-04T13:41:33.844Z,23.8
2022-10-04T13:42:35.445Z,23.8
2022-10-04T13:43:37.056Z,23.8
2022-10-04T13:44:38.852Z,23.8
2022-10-04T13:45:40.479Z,23.8
2022-10-04T13:46:42.569Z,23.8
2022-10-04T13:47:44.260Z,23.8
2022-10-04T13:48:45.927Z,23.8
2022-10-04T13:49:47.621Z,23.8
2022-10-04T13:50:49.204Z,23.8
2022-10-04T13:51:53.423Z,23.8
2022-10-04T13:52:55.019Z,23.7
2022-10-04T13:53:56.619Z,23.8
2022-10-04T13:54:58.309Z,23.8
2022-10-04T13:56:00.052Z,23.8
2022-10-04T13:57:01.872Z,23.8